Time;durP1;ratioP1;P1;durP2;ratioP2;P2;SDS_P1;SDS_P2;PMS_P1;PMS_P2;Temp;Humidity;BMP_temperature;BMP_pressure;BME280_temperature;BME280_humidity;BME280_pressure;Samples;Min_cycle;Max_cycle;Signal;HPM_P1;HPM_P2
2023/04/21 00:01:21;;;;;;;;;;;;;;;;;;5091990;28;19970;-69
2023/04/21 00:03:48;;;;;;;;;;;;;;;;;;5091325;28;20355;-68
2023/04/21 00:06:21;;;;;;;;;;;;;;;;;;5091559;28;19924;-68
2023/04/21 00:08:48;;;;;;;;;;;;;;;;;;5090706;28;20006;-69
2023/04/21 00:11:15;;;;;;;;;;;;;;;;;;5092151;28;20044;-69
2023/04/21 00:13:42;;;;;;;;;;;;;;;;;;5072160;28;19925;-69
2023/04/21 00:16:09;;;;;;;;;;;;;;;;;;5081110;28;20347;-69
2023/04/21 00:18:36;;;;;;;;;;;;;;;;;;5090942;28;19966;-69
2023/04/21 00:21:03;;;;;;;;;;;;;;;;;;5091337;28;19979;-69
2023/04/21 00:23:30;;;;;;;;;;;;;;;;;;5090352;28;19967;-69
2023/04/21 00:25:57;;;;;;;;;;;;;;;;;;5091903;28;19992;-69
2023/04/21 00:28:24;;;;;;;;;;;;;;;;;;5091006;28;20445;-67
2023/04/21 00:30:53;;;;;;;;;;;;;;;;;;5072105;28;19924;-68
2023/04/21 00:33:20;;;;;;;;;;;;;;;;;;5076077;28;19974;-68
2023/04/21 00:35:47;;;;;;;;;;;;;;;;;;5084330;28;19924;-68
2023/04/21 00:38:14;;;;;;;;;;;;;;;;;;5095769;28;19984;-67
2023/04/21 00:40:41;;;;;;;;;;;;;;;;;;5095709;28;20380;-68
2023/04/21 00:43:08;;;;;;;;;;;;;;;;;;5095642;28;19967;-69
2023/04/21 00:45:35;;;;;;;;;;;;;;;;;;5094405;28;19978;-69
2023/04/21 00:48:02;;;;;;;;;;;;;;;;;;5094552;28;20396;-67
2023/04/21 00:50:29;;;;;;;;;;;;;;;;;;5095088;28;19956;-69
2023/04/21 00:52:56;;;;;;;;;;;;;;;;;;5095376;28;19977;-69
2023/04/21 00:55:23;;;;;;;;;;;;;;;;;;5095092;28;19924;-69
2023/04/21 00:57:50;;;;;;;;;;;;;;;;;;5094320;28;19924;-69
2023/04/21 01:00:17;;;;;;;;;;;;;;;;;;5095237;28;20385;-69
2023/04/21 01:02:45;;;;;;;;;;;;;;;;;;5091012;28;19954;-70
2023/04/21 01:05:12;;;;;;;;;;;;;;;;;;5089762;28;20018;-69
2023/04/21 01:07:39;;;;;;;;;;;;;;;;;;5094820;28;20281;-68
2023/04/21 01:10:06;;;;;;;;;;;;;;;;;;5094971;28;19924;-68
2023/04/21 01:12:34;;;;;;;;;;;;;;;;;;5093550;28;19924;-68
2023/04/21 01:15:01;;;;;;;;;;;;;;;;;;5093792;28;19931;-68
2023/04/21 01:17:30;;;;;;;;;;;;;;;;;;5094259;28;19984;-70
2023/04/21 01:19:57;;;;;;;;;;;;;;;;;;5091196;28;20438;-68
2023/04/21 01:22:24;;;;;;;;;;;;;;;;;;5094037;28;19924;-68
2023/04/21 01:24:51;;;;;;;;;;;;;;;;;;5094364;28;20010;-69
2023/04/21 01:27:18;;;;;;;;;;;;;;;;;;5094156;28;19928;-69
2023/04/21 01:29:46;;;;;;;;;;;;;;;;;;5093633;28;19925;-69
2023/04/21 01:32:13;;;;;;;;;;;;;;;;;;5094641;28;19931;-68
2023/04/21 01:34:40;;;;;;;;;;;;;;;;;;5094040;28;19924;-68
2023/04/21 01:37:07;;;;;;;;;;;;;;;;;;5087500;28;19963;-69
2023/04/21 01:39:34;;;;;;;;;;;;;;;;;;5093655;28;19989;-68
2023/04/21 01:42:01;;;;;;;;;;;;;;;;;;5093448;28;19924;-68
2023/04/21 01:44:28;;;;;;;;;;;;;;;;;;5092435;28;19946;-68
2023/04/21 01:46:55;;;;;;;;;;;;;;;;;;5094143;28;19969;-68
2023/04/21 01:49:22;;;;;;;;;;;;;;;;;;5092913;28;19982;-68
2023/04/21 01:51:49;;;;;;;;;;;;;;;;;;5093699;28;20380;-68
2023/04/21 01:54:16;;;;;;;;;;;;;;;;;;5091512;28;19978;-68
2023/04/21 01:56:43;;;;;;;;;;;;;;;;;;5093259;28;19924;-68
2023/04/21 01:59:10;;;;;;;;;;;;;;;;;;5093396;28;19928;-68
2023/04/21 02:01:37;;;;;;;;;;;;;;;;;;5093920;28;19924;-68
2023/04/21 02:04:04;;;;;;;;;;;;;;;;;;5093340;28;19987;-68
2023/04/21 02:06:31;;;;;;;;;;;;;;;;;;5091103;28;19924;-67
2023/04/21 02:08:58;;;;;;;;;;;;;;;;;;5092327;28;19935;-67
2023/04/21 02:11:25;;;;;;;;;;;;;;;;;;5092430;28;19977;-67
2023/04/21 02:13:52;;;;;;;;;;;;;;;;;;5093555;28;20019;-68
2023/04/21 02:16:20;;;;;;;;;;;;;;;;;;5094218;28;19930;-66
2023/04/21 02:18:47;;;;;;;;;;;;;;;;;;5092976;28;19924;-68
2023/04/21 02:21:14;;;;;;;;;;;;;;;;;;5094188;28;19924;-67
2023/04/21 02:23:41;;;;;;;;;;;;;;;;;;5094083;28;20473;-67
2023/04/21 02:26:08;;;;;;;;;;;;;;;;;;5093401;28;19932;-67
2023/04/21 02:28:35;;;;;;;;;;;;;;;;;;5092633;28;19928;-68
2023/04/21 02:31:02;;;;;;;;;;;;;;;;;;5093515;28;20312;-67
2023/04/21 02:33:29;;;;;;;;;;;;;;;;;;5092440;28;19975;-67
2023/04/21 02:35:56;;;;;;;;;;;;;;;;;;5092837;28;19924;-67
2023/04/21 02:38:23;;;;;;;;;;;;;;;;;;5093256;28;19924;-68
2023/04/21 02:40:50;;;;;;;;;;;;;;;;;;5092909;28;20396;-67
2023/04/21 02:43:17;;;;;;;;;;;;;;;;;;5093608;28;19928;-67
2023/04/21 02:45:44;;;;;;;;;;;;;;;;;;5092924;28;20020;-67
2023/04/21 02:48:12;;;;;;;;;;;;;;;;;;5091997;28;19924;-67
2023/04/21 02:50:39;;;;;;;;;;;;;;;;;;5092907;28;19924;-67
2023/04/21 02:53:06;;;;;;;;;;;;;;;;;;5093007;28;20027;-67
2023/04/21 02:55:33;;;;;;;;;;;;;;;;;;5092690;28;19925;-67
2023/04/21 02:58:00;;;;;;;;;;;;;;;;;;5091704;28;19974;-67
2023/04/21 03:00:27;;;;;;;;;;;;;;;;;;5092606;28;19924;-67
2023/04/21 03:02:54;;;;;;;;;;;;;;;;;;5085155;28;19924;-66
2023/04/21 03:05:21;;;;;;;;;;;;;;;;;;5092554;28;20380;-67
2023/04/21 03:07:48;;;;;;;;;;;;;;;;;;5092496;28;19970;-67
2023/04/21 03:10:15;;;;;;;;;;;;;;;;;;5092696;28;19924;-68
2023/04/21 03:12:42;;;;;;;;;;;;;;;;;;5092232;28;20458;-68
2023/04/21 03:15:10;;;;;;;;;;;;;;;;;;5092328;28;19978;-67
2023/04/21 03:17:37;;;;;;;;;;;;;;;;;;5091873;28;19924;-67
2023/04/21 03:20:06;;;;;;;;;;;;;;;;;;5079078;28;20011;-67
2023/04/21 03:22:33;;;;;;;;;;;;;;;;;;5093113;28;19928;-66
2023/04/21 03:25:00;;;;;;;;;;;;;;;;;;5092741;28;20400;-67
2023/04/21 03:27:27;;;;;;;;;;;;;;;;;;5092132;28;19925;-67
2023/04/21 03:29:54;;;;;;;;;;;;;;;;;;5092658;28;20012;-67
2023/04/21 03:32:21;;;;;;;;;;;;;;;;;;5091416;28;19997;-67
2023/04/21 03:34:49;;;;;;;;;;;;;;;;;;5092476;28;19967;-67
2023/04/21 03:37:17;;;;;;;;;;;6.50;99.90;;;;;;5091702;28;20027;-67
2023/04/21 03:39:44;;;;;;;;;;;;;;;;;;5091211;28;19954;-70
2023/04/21 03:42:11;;;;;;;;;;;;;;;;;;5092366;28;20368;-67
2023/04/21 03:44:38;;;;;;;;;;;;;;;;;;5091965;28;20031;-67
2023/04/21 03:47:05;;;;;;;;;;;;;;;;;;5092299;28;20441;-67
2023/04/21 03:49:32;;;;;;;;;;;;;;;;;;5091034;28;19924;-68
2023/04/21 03:51:59;;;;;;;;;;;;;;;;;;5091868;28;19986;-68
2023/04/21 03:54:27;;;;;;;;;;;6.50;99.90;;;;;;5075134;28;19924;-68
2023/04/21 03:56:54;;;;;;;;;;;;;;;;;;5072359;28;19924;-68
2023/04/21 03:59:21;;;;;;;;;;;;;;;;;;5085455;28;20348;-68
2023/04/21 04:01:48;;;;;;;;;;;7.20;99.90;;;;;;5091853;28;19924;-68
2023/04/21 04:04:15;;;;;;;;;;;;;;;;;;5091055;28;19925;-68
2023/04/21 04:06:41;;;;;;;;;;;6.50;99.90;;;;;;5092176;28;20497;-68
2023/04/21 04:09:08;;;;;;;;;;;6.50;99.90;;;;;;5095962;28;19924;-68
2023/04/21 04:11:36;;;;;;;;;;;6.30;99.90;;;;;;5077097;28;19924;-68
2023/04/21 04:14:03;;;;;;;;;;;6.40;99.90;;;;;;5075383;28;19970;-68
2023/04/21 04:16:30;;;;;;;;;;;6.50;99.90;;;;;;5089842;28;20320;-68
2023/04/21 04:18:57;;;;;;;;;;;6.40;99.90;;;;;;5093684;28;19939;-68
2023/04/21 04:21:23;;;;;;;;;;;6.20;99.90;;;;;;5095424;28;20281;-68
2023/04/21 04:23:52;;;;;;;;;;;6.60;99.90;;;;;;5095787;28;19975;-68
2023/04/21 04:26:21;;;;;;;;;;;6.50;99.90;;;;;;5095602;28;19930;-68
2023/04/21 04:28:49;;;;;;;;;;;6.50;99.90;;;;;;5087336;28;19924;-68
2023/04/21 04:31:17;;;;;;;;;;;6.40;99.90;;;;;;5095799;28;19970;-66
2023/04/21 04:33:43;;;;;;;;;;;6.30;99.90;;;;;;5094360;28;19964;-67
2023/04/21 04:36:10;;;;;;;;;;;6.30;99.90;;;;;;5095305;28;19928;-68
2023/04/21 04:38:37;;;;;;;;;;;;;;;;;;5094846;28;19924;-67
2023/04/21 04:41:05;;;;;;;;;;;;;;;;;;5095858;28;20000;-67
2023/04/21 04:43:35;;;;;;;;;;;;;;;;;;5093102;28;19985;-66
2023/04/21 04:46:02;;;;;;;;;;;;;;;;;;5075091;28;20295;-67
2023/04/21 04:48:30;;;;;;;;;;;6.20;99.90;;;;;;5088899;28;19924;-68
2023/04/21 04:50:57;;;;;;;;;;;6.20;99.90;;;;;;5094549;28;19924;-68
2023/04/21 04:53:24;;;;;;;;;;;6.20;99.90;;;;;;5095084;28;19959;-67
2023/04/21 04:55:52;;;;;;;;;;;6.20;99.90;;;;;;5095252;28;20006;-68
2023/04/21 04:58:19;;;;;;;;;;;;;;;;;;5095033;28;19994;-67
2023/04/21 05:00:46;;;;;;;;;;;;;;;;;;5092638;28;19967;-67
2023/04/21 05:03:13;;;;;;;;;;;;;;;;;;5092390;28;19924;-67
2023/04/21 05:05:40;;;;;;;;;;;;;;;;;;5094167;28;19975;-67
2023/04/21 05:08:07;;;;;;;;;;;;;;;;;;5092938;28;19978;-70
2023/04/21 05:10:34;;;;;;;;;;;;;;;;;;5094005;28;19932;-67
2023/04/21 05:13:01;;;;;;;;;;;;;;;;;;5092916;28;20015;-67
2023/04/21 05:15:28;;;;;;;;;;;;;;;;;;5093696;28;20308;-66
2023/04/21 05:17:55;;;;;;;;;;;;;;;;;;5092693;28;19978;-67
2023/04/21 05:20:22;;;;;;;;;;;;;;;;;;5093131;28;19977;-68
2023/04/21 05:22:49;;;;;;;;;;;;;;;;;;5093836;28;20319;-67
2023/04/21 05:25:16;;;;;;;;;;;;;;;;;;5093140;28;19978;-67
2023/04/21 05:27:43;;;;;;;;;;;;;;;;;;5093738;28;19924;-67
2023/04/21 05:30:10;;;;;;;;;;;;;;;;;;5093883;28;19924;-68
2023/04/21 05:32:37;;;;;;;;;;;;;;;;;;5092440;28;19977;-67
2023/04/21 05:35:04;;;;;;;;;;;;;;;;;;5092823;28;19924;-67
2023/04/21 05:37:31;;;;;;;;;;;;;;;;;;5093984;28;19924;-66
2023/04/21 05:39:58;;;;;;;;;;;;;;;;;;5093705;28;20354;-68
2023/04/21 05:42:25;;;;;;;;;;;;;;;;;;5094240;28;19924;-66
2023/04/21 05:44:53;;;;;;;;;;;;;;;;;;5093735;28;19928;-66
2023/04/21 05:47:20;;;;;;;;;;;;;;;;;;5092587;28;19970;-67
2023/04/21 05:49:48;;;;;;;;;;;;;;;;;;5093807;28;19928;-66
2023/04/21 05:52:16;;;;;;;;;;;;;;;;;;5086282;28;19925;-67
2023/04/21 05:54:43;;;;;;;;;;;;;;;;;;5093979;28;20056;-68
2023/04/21 05:57:10;;;;;;;;;;;;;;;;;;5085342;28;20021;-67
2023/04/21 05:59:37;;;;;;;;;;;;;;;;;;5094441;28;19931;-67
2023/04/21 06:02:04;;;;;;;;;;;;;;;;;;5099699;28;19974;-67
2023/04/21 06:04:31;;;;;;;;;;;;;;;;;;5089240;28;19932;-68
2023/04/21 06:06:58;;;;;;;;;;;;;;;;;;5094210;28;20004;-68
2023/04/21 06:09:25;;;;;;;;;;;;;;;;;;5093719;28;19936;-67
2023/04/21 06:11:52;;;;;;;;;;;;;;;;;;5099179;28;19931;-69
2023/04/21 06:14:19;;;;;;;;;;;;;;;;;;5095004;28;20048;-66
2023/04/21 06:16:46;;;;;;;;;;;;;;;;;;5103763;28;20388;-68
2023/04/21 06:19:15;;;;;;;;;;;;;;;;;;5102785;28;19924;-69
2023/04/21 06:21:42;;;;;;;;;;;;;;;;;;5100259;28;19923;-68
2023/04/21 06:24:09;;;;;;;;;;;;;;;;;;5093424;28;21252;-68
2023/04/21 06:26:36;;;;;;;;;;;;;;;;;;5087925;28;19924;-68
2023/04/21 06:29:03;;;;;;;;;;;;;;;;;;5073584;28;19925;-68
2023/04/21 06:31:30;;;;;;;;;;;;;;;;;;5089299;28;19924;-68
2023/04/21 06:33:57;;;;;;;;;;;;;;;;;;5092700;28;19940;-68
2023/04/21 06:36:24;;;;;;;;;;;;;;;;;;5090998;28;19954;-68
2023/04/21 06:38:51;;;;;;;;;;;;;;;;;;5092127;28;19924;-68
2023/04/21 06:41:18;;;;;;;;;;;;;;;;;;5089364;28;19924;-69
2023/04/21 06:43:45;;;;;;;;;;;;;;;;;;5089098;28;19946;-69
2023/04/21 06:46:13;;;;;;;;;;;;;;;;;;5097664;28;19931;-69
2023/04/21 06:48:40;;;;;;;;;;;;;;;;;;5092703;28;20010;-68
2023/04/21 06:51:07;;;;;;;;;;;;;;;;;;5092803;28;19924;-68
2023/04/21 06:53:34;;;;;;;;;;;;;;;;;;5093931;28;19923;-69
2023/04/21 06:56:01;;;;;;;;;;;;;;;;;;5087737;28;19981;-68
2023/04/21 06:58:28;;;;;;;;;;;;;;;;;;5090082;28;19967;-68
2023/04/21 07:00:55;;;;;;;;;;;;;;;;;;5080386;28;19928;-68
2023/04/21 07:03:22;;;;;;;;;;;;;;;;;;5099484;28;19963;-69
2023/04/21 07:05:49;;;;;;;;;;;;;;;;;;5090232;28;19928;-68
2023/04/21 07:08:16;;;;;;;;;;;;;;;;;;5093813;28;19932;-68
2023/04/21 07:10:43;;;;;;;;;;;;;;;;;;5101709;28;19924;-68
2023/04/21 07:13:10;;;;;;;;;;;;;;;;;;5100019;28;19924;-68
2023/04/21 07:15:37;;;;;;;;;;;;;;;;;;5098094;28;19931;-68
2023/04/21 07:18:04;;;;;;;;;;;;;;;;;;5096978;28;19971;-68
2023/04/21 07:20:31;;;;;;;;;;;;;;;;;;5079947;28;19973;-68
2023/04/21 07:22:58;;;;;;;;;;;;;;;;;;5083279;28;19924;-69
2023/04/21 07:25:25;;;;;;;;;;;;;;;;;;5087184;28;19931;-68
2023/04/21 07:27:52;;;;;;;;;;;;;;;;;;5087744;28;19977;-68
2023/04/21 07:30:19;;;;;;;;;;;;;;;;;;5086940;28;19932;-68
2023/04/21 07:32:46;;;;;;;;;;;;;;;;;;5080951;28;19960;-68
2023/04/21 07:35:13;;;;;;;;;;;;;;;;;;5091650;28;19928;-69
2023/04/21 07:37:40;;;;;;;;;;;;;;;;;;5088420;28;19967;-69
2023/04/21 07:40:07;;;;;;;;;;;;;;;;;;5099491;28;19923;-68
2023/04/21 07:42:34;;;;;;;;;;;;;;;;;;5092429;28;20001;-68
2023/04/21 07:45:01;;;;;;;;;;;;;;;;;;5089978;28;19977;-69
2023/04/21 07:47:28;;;;;;;;;;;;;;;;;;5089324;28;19925;-67
2023/04/21 07:49:55;;;;;;;;;;;;;;;;;;5088707;28;19932;-67
2023/04/21 07:52:22;;;;;;;;;;;;;;;;;;5101985;28;19931;-67
2023/04/21 07:54:49;;;;;;;;;;;;;;;;;;5097362;28;20326;-68
2023/04/21 07:57:16;;;;;;;;;;;;;;;;;;5100245;28;19931;-68
2023/04/21 07:59:43;;;;;;;;;;;;;;;;;;5088031;28;19994;-68
2023/04/21 08:02:10;;;;;;;;;;;;;;;;;;5097400;28;19977;-68
2023/04/21 08:04:37;;;;;;;;;;;;;;;;;;5098713;28;20021;-69
2023/04/21 08:07:04;;;;;;;;;;;;;;;;;;5093104;28;19928;-68
2023/04/21 08:09:31;;;;;;;;;;;;;;;;;;5093454;28;19932;-69
2023/04/21 08:11:58;;;;;;;;;;;;;;;;;;5094199;28;20361;-69
2023/04/21 08:14:25;;;;;;;;;;;;;;;;;;5092050;28;20292;-69
2023/04/21 08:16:52;;;;;;;;;;;;;;;;;;5100410;28;20014;-69
2023/04/21 08:19:19;;;;;;;;;;;;;;;;;;5081416;28;19924;-68
2023/04/21 08:21:46;;;;;;;;;;;;;;;;;;5092789;28;20026;-68
2023/04/21 08:24:13;;;;;;;;;;;;;;;;;;5094729;28;19958;-69
2023/04/21 08:26:40;;;;;;;;;;;;;;;;;;5096871;28;19978;-70
2023/04/21 08:29:09;;;;;;;;;;;;;;;;;;5102504;28;19924;-69
2023/04/21 08:31:36;;;;;;;;;;;;;;;;;;5090598;28;20264;-69
2023/04/21 08:34:03;;;;;;;;;;;;;;;;;;5089075;28;19924;-69
2023/04/21 08:36:30;;;;;;;;;;;;;;;;;;5092413;28;19969;-69
2023/04/21 08:38:57;;;;;;;;;;;;;;;;;;5102844;28;19939;-69
2023/04/21 08:41:24;;;;;;;;;;;;;;;;;;5091532;28;19963;-69
2023/04/21 08:43:51;;;;;;;;;;;;;;;;;;5103696;28;19924;-69
2023/04/21 08:46:18;;;;;;;;;;;;;;;;;;5099083;28;19924;-69
2023/04/21 08:48:45;;;;;;;;;;;;;;;;;;5096537;28;19976;-69
2023/04/21 08:51:12;;;;;;;;;;;;;;;;;;5099251;28;19984;-69
2023/04/21 08:53:40;;;;;;;;;;;;;;;;;;5093249;28;19936;-69
2023/04/21 08:56:07;;;;;;;;;;;;;;;;;;5087277;28;19930;-69
2023/04/21 08:58:34;;;;;;;;;;;;;;;;;;5090149;28;20028;-69
2023/04/21 09:01:01;;;;;;;;;;;;;;;;;;5097196;28;20295;-68
2023/04/21 09:03:28;;;;;;;;;;;;;;;;;;5093847;28;19924;-69
2023/04/21 09:05:55;;;;;;;;;;;;;;;;;;5104493;28;20260;-68
2023/04/21 09:08:22;;;;;;;;;;;;;;;;;;5091885;28;19989;-69
2023/04/21 09:10:49;;;;;;;;;;;;;;;;;;5096183;28;19924;-69
2023/04/21 09:13:16;;;;;;;;;;;;;;;;;;5094948;28;19924;-69
2023/04/21 09:15:43;;;;;;;;;;;;;;;;;;5098953;28;20392;-68
2023/04/21 09:18:10;;;;;;;;;;;;;;;;;;5094301;28;19969;-68
2023/04/21 09:20:37;;;;;;;;;;;;;;;;;;5090454;28;19924;-68
2023/04/21 09:23:04;;;;;;;;;;;;;;;;;;5094370;28;19924;-68
2023/04/21 09:25:31;;;;;;;;;;;;;;;;;;5084823;28;19964;-69
2023/04/21 09:27:58;;;;;;;;;;;;;;;;;;5074277;28;20434;-68
2023/04/21 09:30:25;;;;;;;;;;;;;;;;;;5074595;28;19924;-69
2023/04/21 09:32:52;;;;;;;;;;;;;;;;;;5074427;28;20434;-69
2023/04/21 09:35:19;;;;;;;;;;;;;;;;;;5073431;28;19929;-68
2023/04/21 09:37:46;;;;;;;;;;;;;;;;;;5074072;28;19925;-69
2023/04/21 09:40:13;;;;;;;;;;;;;;;;;;5081668;28;20412;-68
2023/04/21 09:42:40;;;;;;;;;;;;;;;;;;5088584;28;19967;-69
2023/04/21 09:45:08;;;;;;;;;;;;;;;;;;5098791;28;19924;-68
2023/04/21 09:47:35;;;;;;;;;;;;;;;;;;5096248;28;19936;-69
2023/04/21 09:50:03;;;;;;;;;;;;;;;;;;5096434;28;20319;-69
2023/04/21 09:52:30;;;;;;;;;;;;;;;;;;5099092;28;19931;-68
2023/04/21 09:54:57;;;;;;;;;;;;;;;;;;5092531;28;20346;-68
2023/04/21 09:57:24;;;;;;;;;;;;;;;;;;5091212;28;20372;-69
2023/04/21 09:59:51;;;;;;;;;;;;;;;;;;5095035;28;19924;-69
2023/04/21 10:02:18;;;;;;;;;;;;;;;;;;5095590;28;21019;-69
2023/04/21 10:04:45;;;;;;;;;;;;;;;;;;5097126;28;20001;-68
2023/04/21 10:07:12;;;;;;;;;;;;;;;;;;5087874;28;19991;-69
2023/04/21 10:09:40;;;;;;;;;;;;;;;;;;5093733;28;20411;-70
2023/04/21 10:12:07;;;;;;;;;;;;;;;;;;5093466;28;20307;-69
2023/04/21 10:14:34;;;;;;;;;;;;;;;;;;5097405;28;19930;-68
2023/04/21 10:17:01;;;;;;;;;;;;;;;;;;5098515;28;19924;-68
2023/04/21 10:19:28;;;;;;;;;;;;;;;;;;5104376;28;20285;-69
2023/04/21 10:21:55;;;;;;;;;;;;;;;;;;5094851;28;19931;-69
2023/04/21 10:24:22;;;;;;;;;;;;;;;;;;5095133;28;20388;-68
2023/04/21 10:26:49;;;;;;;;;;;;;;;;;;5101342;28;19970;-68
2023/04/21 10:29:16;;;;;;;;;;;;;;;;;;5101864;28;19977;-68
2023/04/21 10:31:43;;;;;;;;;;;;;;;;;;5096260;28;19924;-68
2023/04/21 10:34:10;;;;;;;;;;;;;;;;;;5082587;28;20406;-68
2023/04/21 10:36:37;;;;;;;;;;;;;;;;;;5085108;28;20334;-68
2023/04/21 10:39:04;;;;;;;;;;;;;;;;;;5109181;28;19974;-68
2023/04/21 10:41:31;;;;;;;;;;;;;;;;;;5091643;28;19928;-68
2023/04/21 10:43:59;;;;;;;;;;;;;;;;;;5092571;28;19924;-68
2023/04/21 10:46:26;;;;;;;;;;;;;;;;;;5094196;28;19930;-68
2023/04/21 10:48:53;;;;;;;;;;;;;;;;;;5106245;28;19992;-68
2023/04/21 10:51:20;;;;;;;;;;;;;;;;;;5107046;28;19931;-69
2023/04/21 10:53:47;;;;;;;;;;;;;;;;;;5102581;28;20295;-69
2023/04/21 10:56:14;;;;;;;;;;;;;;;;;;5091474;28;20464;-68
2023/04/21 10:58:41;;;;;;;;;;;;;;;;;;5096310;27;19924;-68
2023/04/21 11:01:08;;;;;;;;;;;;;;;;;;5098842;28;20388;-69
2023/04/21 11:03:36;;;;;;;;;;;;;;;;;;5092723;28;20415;-69
2023/04/21 11:06:04;;;;;;;;;;;;;;;;;;5096497;28;20022;-69
2023/04/21 11:08:31;;;;;;;;;;;;;;;;;;5087738;28;20330;-69
2023/04/21 11:10:58;;;;;;;;;;;;;;;;;;5088170;28;19924;-68
2023/04/21 11:13:25;;;;;;;;;;;;;;;;;;5085270;28;19924;-68
2023/04/21 11:15:52;;;;;;;;;;;;;;;;;;5092317;28;19924;-69
2023/04/21 11:18:19;;;;;;;;;;;;;;;;;;5091609;28;19924;-68
2023/04/21 11:20:46;;;;;;;;;;;;;;;;;;5086373;28;20423;-69
2023/04/21 11:23:13;;;;;;;;;;;;;;;;;;5089646;28;20388;-69
2023/04/21 11:25:40;;;;;;;;;;;;;;;;;;5086230;28;19930;-68
2023/04/21 11:28:07;;;;;;;;;;;;;;;;;;5086542;28;19971;-68
2023/04/21 11:30:35;;;;;;;;;;;;;;;;;;5097532;28;19993;-68
2023/04/21 11:33:02;;;;;;;;;;;;;;;;;;5091209;28;19936;-68
2023/04/21 11:35:29;;;;;;;;;;;;;;;;;;5094267;28;19924;-69
2023/04/21 11:37:56;;;;;;;;;;;;;;;;;;5093281;28;19978;-69
2023/04/21 11:40:23;;;;;;;;;;;;;;;;;;5086098;28;19924;-69
2023/04/21 11:42:50;;;;;;;;;;;;;;;;;;5086963;28;20404;-69
2023/04/21 11:45:18;;;;;;;;;;;;;;;;;;5091474;28;20009;-69
2023/04/21 11:47:45;;;;;;;;;;;;;;;;;;5088167;28;19939;-70
2023/04/21 11:50:12;;;;;;;;;;;;;;;;;;5097972;28;20380;-69
2023/04/21 11:52:41;;;;;;;;;;;;;;;;;;5107193;28;19991;-69
2023/04/21 11:55:08;;;;;;;;;;;;;;;;;;5087190;28;20613;-74
2023/04/21 11:57:35;;;;;;;;;;;;;;;;;;5086727;28;20019;-73
2023/04/21 12:00:02;;;;;;;;;;;;;;;;;;5091373;28;19924;-73
2023/04/21 12:02:29;;;;;;;;;;;;;;;;;;5100414;28;19924;-74
2023/04/21 12:04:58;;;;;;;;;;;;;;;;;;5096676;28;19924;-76
2023/04/21 12:07:26;;;;;;;;;;;;;;;;;;5092325;28;19924;-75
2023/04/21 12:09:53;;;;;;;;;;;;;;;;;;5093685;28;20377;-75
2023/04/21 12:12:20;;;;;;;;;;;;;;;;;;5088761;28;19924;-73
2023/04/21 12:14:47;;;;;;;;;;;;;;;;;;5103768;28;19924;-66
2023/04/21 12:17:14;;;;;;;;;;;;;;;;;;5092573;28;19924;-66
2023/04/21 12:19:41;;;;;;;;;;;;;;;;;;5094222;28;20328;-66
2023/04/21 12:22:08;;;;;;;;;;;;;;;;;;5087479;28;19979;-66
2023/04/21 12:24:35;;;;;;;;;;;;;;;;;;5094361;28;20027;-66
2023/04/21 12:27:02;;;;;;;;;;;;;;;;;;5097001;28;19974;-67
2023/04/21 12:29:29;;;;;;;;;;;;;;;;;;5096737;28;19927;-66
2023/04/21 12:31:56;;;;;;;;;;;;;;;;;;5086177;28;19969;-67
2023/04/21 12:34:23;;;;;;;;;;;;;;;;;;5100957;28;20043;-67
2023/04/21 12:36:50;;;;;;;;;;;;;;;;;;5093902;28;19927;-67
2023/04/21 12:39:18;;;;;;;;;;;;;;;;;;5090056;28;19924;-66
2023/04/21 12:41:46;;;;;;;;;;;;;;;;;;5084111;28;19924;-68
2023/04/21 12:44:13;;;;;;;;;;;;;;;;;;5087244;28;20387;-67
2023/04/21 12:46:40;;;;;;;;;;;;;;;;;;5085662;28;19975;-67
2023/04/21 12:49:08;;;;;;;;;;;;;;;;;;5089892;28;19988;-67
2023/04/21 12:51:35;;;;;;;;;;;;;;;;;;5086855;28;19932;-67
2023/04/21 12:54:02;;;;;;;;;;;;;;;;;;5088214;28;19928;-68
2023/04/21 12:56:30;;;;;;;;;;;;;;;;;;5091970;28;19934;-68
2023/04/21 12:58:57;;;;;;;;;;;;;;;;;;5098955;28;19924;-68
2023/04/21 13:01:24;;;;;;;;;;;;;;;;;;5098998;28;19977;-68
2023/04/21 13:03:51;;;;;;;;;;;;;;;;;;5091994;28;19939;-68
2023/04/21 13:06:18;;;;;;;;;;;;;;;;;;5087599;28;19928;-68
2023/04/21 13:08:45;;;;;;;;;;;;;;;;;;5091327;28;19931;-68
2023/04/21 13:11:12;;;;;;;;;;;;;;;;;;5090849;28;19928;-69
2023/04/21 13:13:39;;;;;;;;;;;;;;;;;;5099666;28;19990;-69
2023/04/21 13:16:06;;;;;;;;;;;;;;;;;;5089790;28;19924;-68
2023/04/21 13:18:34;;;;;;;;;;;;;;;;;;5094728;28;20028;-68
2023/04/21 13:21:01;;;;;;;;;;;;;;;;;;5090875;28;19931;-68
2023/04/21 13:23:28;;;;;;;;;;;;;;;;;;5094457;28;19925;-68
2023/04/21 13:25:55;;;;;;;;;;;;;;;;;;5091385;28;20470;-68
2023/04/21 13:28:22;;;;;;;;;;;;;;;;;;5087516;28;19924;-67
2023/04/21 13:30:49;;;;;;;;;;;;;;;;;;5090421;28;19931;-67
2023/04/21 13:33:16;;;;;;;;;;;;;;;;;;5114555;28;19924;-67
2023/04/21 13:35:43;;;;;;;;;;;;;;;;;;5098719;28;19924;-68
2023/04/21 13:38:11;;;;;;;;;;;;;;;;;;5109401;28;19975;-67
2023/04/21 13:40:38;;;;;;;;;;;;;;;;;;5100712;28;20388;-67
2023/04/21 13:43:05;;;;;;;;;;;;;;;;;;5092353;28;19924;-67
2023/04/21 13:45:32;;;;;;;;;;;;;;;;;;5088946;28;19925;-68
2023/04/21 13:47:59;;;;;;;;;;;;;;;;;;5087161;28;19947;-68
2023/04/21 13:50:26;;;;;;;;;;;;;;;;;;5093481;28;19963;-67
2023/04/21 13:52:53;;;;;;;;;;;;;;;;;;5097352;28;19928;-67
2023/04/21 13:55:20;;;;;;;;;;;;;;;;;;5097926;28;19978;-68
2023/04/21 13:57:47;;;;;;;;;;;;;;;;;;5093147;28;20010;-67
2023/04/21 14:00:14;;;;;;;;;;;;;;;;;;5092790;28;19923;-67
2023/04/21 14:02:41;;;;;;;;;;;;;;;;;;5082969;28;19924;-67
2023/04/21 14:05:08;;;;;;;;;;;;;;;;;;5081583;28;19978;-67
2023/04/21 14:07:35;;;;;;;;;;;;;;;;;;5082542;28;19981;-69
2023/04/21 14:10:03;;;;;;;;;;;;;;;;;;5079712;28;20038;-68
2023/04/21 14:12:31;;;;;;;;;;;;;;;;;;5087788;28;19943;-69
2023/04/21 14:14:58;;;;;;;;;;;;;;;;;;5079860;28;19924;-68
2023/04/21 14:17:25;;;;;;;;;;;;;;;;;;5084549;28;19928;-68
2023/04/21 14:19:52;;;;;;;;;;;;;;;;;;5082869;28;19924;-67
2023/04/21 14:22:19;;;;;;;;;;;;;;;;;;5080052;28;20018;-67
2023/04/21 14:24:46;;;;;;;;;;;;;;;;;;5083343;28;19986;-68
2023/04/21 14:27:13;;;;;;;;;;;;;;;;;;5073432;28;19963;-68
2023/04/21 14:29:40;;;;;;;;;;;;;;;;;;5087833;28;19951;-68
2023/04/21 14:32:07;;;;;;;;;;;;;;;;;;5084188;28;19985;-68
2023/04/21 14:34:34;;;;;;;;;;;;;;;;;;5077299;28;19924;-66
2023/04/21 14:37:02;;;;;;;;;;;;;;;;;;5088801;28;19932;-68
2023/04/21 14:39:29;;;;;;;;;;;;;;;;;;5081386;28;20028;-68
2023/04/21 14:41:56;;;;;;;;;;;;;;;;;;5079404;28;19942;-68
2023/04/21 14:44:23;;;;;;;;;;;;;;;;;;5089051;28;19953;-68
2023/04/21 14:46:51;;;;;;;;;;;;;;;;;;5078615;28;21465;-67
2023/04/21 14:49:19;;;;;;;;;;;;;;;;;;5080807;28;19932;-67
2023/04/21 14:51:48;;;;;;;;;;;;;;;;;;5088755;28;20460;-66
2023/04/21 14:54:15;;;;;;;;;;;;;;;;;;5080504;28;19927;-67
2023/04/21 14:56:42;;;;;;;;;;;;;;;;;;5082333;28;19977;-67
2023/04/21 14:59:09;;;;;;;;;;;;;;;;;;5087496;28;20387;-66
2023/04/21 15:01:36;;;;;;;;;;;;;;;;;;5086145;28;20262;-69
2023/04/21 15:04:03;;;;;;;;;;;;;;;;;;5094499;28;19931;-68
2023/04/21 15:06:31;;;;;;;;;;;;;;;;;;5092994;28;20000;-69
2023/04/21 15:08:58;;;;;;;;;;;;;;;;;;5091791;28;19928;-67
2023/04/21 15:11:25;;;;;;;;;;;;;;;;;;5080742;28;19982;-68
2023/04/21 15:13:52;;;;;;;;;;;;;;;;;;5080225;28;19970;-68
2023/04/21 15:16:19;;;;;;;;;;;;;;;;;;5078189;28;20193;-68
2023/04/21 15:18:46;;;;;;;;;;;;;;;;;;5079330;28;20335;-69
2023/04/21 15:21:13;;;;;;;;;;;;;;;;;;5078793;28;19924;-67
2023/04/21 15:23:40;;;;;;;;;;;;;;;;;;5080802;28;20065;-69
2023/04/21 15:26:07;;;;;;;;;;;;;;;;;;5082804;28;19928;-68
2023/04/21 15:28:35;;;;;;;;;;;;;;;;;;5090125;28;19924;-67
2023/04/21 15:31:02;;;;;;;;;;;;;;;;;;5093490;28;19979;-67
2023/04/21 15:33:29;;;;;;;;;;;;;;;;;;5080501;28;19967;-67
2023/04/21 15:35:56;;;;;;;;;;;;;;;;;;5085787;28;19924;-67
2023/04/21 15:38:23;;;;;;;;;;;;;;;;;;5088957;28;19970;-67
2023/04/21 15:40:50;;;;;;;;;;;;;;;;;;5089692;28;19928;-67
2023/04/21 15:43:17;;;;;;;;;;;;;;;;;;5082075;28;20376;-67
2023/04/21 15:45:44;;;;;;;;;;;;;;;;;;5079038;28;19933;-66
2023/04/21 15:48:11;;;;;;;;;;;;;;;;;;5086396;28;19924;-67
2023/04/21 15:50:39;;;;;;;;;;;;;;;;;;5089937;28;19931;-68
2023/04/21 15:53:06;;;;;;;;;;;;;;;;;;5089567;28;19925;-67
2023/04/21 15:55:33;;;;;;;;;;;;;;;;;;5083645;28;19943;-67
2023/04/21 15:58:00;;;;;;;;;;;;;;;;;;5076112;28;20307;-67
2023/04/21 16:00:30;;;;;;;;;;;;;;;;;;5084318;28;19931;-68
2023/04/21 16:02:57;;;;;;;;;;;;;;;;;;5088730;28;19947;-67
2023/04/21 16:05:24;;;;;;;;;;;;;;;;;;5085680;28;19931;-67
2023/04/21 16:07:51;;;;;;;;;;;;;;;;;;5098698;28;19935;-67
2023/04/21 16:10:18;;;;;;;;;;;;;;;;;;5093470;28;20322;-67
2023/04/21 16:12:49;;;;;;;;;;;;;;;;;;5081370;28;19996;-69
2023/04/21 16:15:16;;;;;;;;;;;;;;;;;;5094633;28;20543;-68
2023/04/21 16:17:43;;;;;;;;;;;;;;;;;;5093520;28;20013;-68
2023/04/21 16:20:10;;;;;;;;;;;;;;;;;;5094249;28;19924;-68
2023/04/21 16:22:37;;;;;;;;;;;;;;;;;;5084538;28;19974;-68
2023/04/21 16:25:04;;;;;;;;;;;;;;;;;;5077595;28;19929;-68
2023/04/21 16:27:31;;;;;;;;;;;;;;;;;;5092714;28;19977;-68
2023/04/21 16:29:58;;;;;;;;;;;;;;;;;;5086777;28;19931;-68
2023/04/21 16:32:25;;;;;;;;;;;;;;;;;;5095670;28;19924;-67
2023/04/21 16:34:52;;;;;;;;;;;;;;;;;;5088321;28;19925;-68
2023/04/21 16:37:21;;;;;;;;;;;;;;;;;;5093476;28;19952;-68